sensor_id;sensor_type;location;lat;lon;timestamp;temperature;humidity
51733;DHT22;39139;53.144;6.244;2023-07-20T00:00:05;15.40;99.90
51733;DHT22;39139;53.144;6.244;2023-07-20T00:02:31;15.30;99.90
51733;DHT22;39139;53.144;6.244;2023-07-20T00:04:57;15.30;99.90
51733;DHT22;39139;53.144;6.244;2023-07-20T00:07:22;15.30;99.90
51733;DHT22;39139;53.144;6.244;2023-07-20T00:09:50;15.30;99.90
51733;DHT22;39139;53.144;6.244;2023-07-20T00:12:16;15.30;99.90
51733;DHT22;39139;53.144;6.244;2023-07-20T00:14:41;15.30;99.90
51733;DHT22;39139;53.144;6.244;2023-07-20T00:17:07;15.30;99.90
51733;DHT22;39139;53.144;6.244;2023-07-20T00:19:33;15.30;99.90
51733;DHT22;39139;53.144;6.244;2023-07-20T00:21:58;15.30;99.90
51733;DHT22;39139;53.144;6.244;2023-07-20T00:24:24;15.20;99.90
51733;DHT22;39139;53.144;6.244;2023-07-20T00:26:50;15.10;99.90
51733;DHT22;39139;53.144;6.244;2023-07-20T00:29:15;15.00;99.90
51733;DHT22;39139;53.144;6.244;2023-07-20T00:31:41;15.00;99.90
51733;DHT22;39139;53.144;6.244;2023-07-20T00:34:09;14.90;99.90
51733;DHT22;39139;53.144;6.244;2023-07-20T00:36:34;14.90;99.90
51733;DHT22;39139;53.144;6.244;2023-07-20T00:39:00;14.90;99.90
51733;DHT22;39139;53.144;6.244;2023-07-20T00:41:26;14.80;99.90
51733;DHT22;39139;53.144;6.244;2023-07-20T00:43:55;14.70;99.90
51733;DHT22;39139;53.144;6.244;2023-07-20T00:46:23;14.70;99.90
51733;DHT22;39139;53.144;6.244;2023-07-20T00:48:49;14.60;99.90
51733;DHT22;39139;53.144;6.244;2023-07-20T00:51:15;14.50;99.90
51733;DHT22;39139;53.144;6.244;2023-07-20T00:53:41;14.40;99.90
51733;DHT22;39139;53.144;6.244;2023-07-20T00:56:07;14.40;99.90
51733;DHT22;39139;53.144;6.244;2023-07-20T00:58:34;14.30;99.90
51733;DHT22;39139;53.144;6.244;2023-07-20T01:01:00;14.30;99.90
51733;DHT22;39139;53.144;6.244;2023-07-20T01:03:26;14.20;99.90
51733;DHT22;39139;53.144;6.244;2023-07-20T01:08:36;14.10;99.90
51733;DHT22;39139;53.144;6.244;2023-07-20T01:11:39;14.00;99.90
51733;DHT22;39139;53.144;6.244;2023-07-20T01:14:08;14.00;99.90
51733;DHT22;39139;53.144;6.244;2023-07-20T01:16:34;13.90;99.90
51733;DHT22;39139;53.144;6.244;2023-07-20T01:19:00;13.90;99.90
51733;DHT22;39139;53.144;6.244;2023-07-20T01:21:39;13.80;99.90
51733;DHT22;39139;53.144;6.244;2023-07-20T01:24:32;13.70;99.90
51733;DHT22;39139;53.144;6.244;2023-07-20T01:32:39;13.50;99.90
51733;DHT22;39139;53.144;6.244;2023-07-20T01:35:06;13.50;99.90
51733;DHT22;39139;53.144;6.244;2023-07-20T01:37:33;13.40;99.90
51733;DHT22;39139;53.144;6.244;2023-07-20T01:40:00;13.30;99.90
51733;DHT22;39139;53.144;6.244;2023-07-20T01:42:26;13.30;99.90
51733;DHT22;39139;53.144;6.244;2023-07-20T01:44:52;13.20;99.90
51733;DHT22;39139;53.144;6.244;2023-07-20T01:47:20;13.10;99.90
51733;DHT22;39139;53.144;6.244;2023-07-20T01:49:46;13.20;99.90
51733;DHT22;39139;53.144;6.244;2023-07-20T01:52:12;13.10;99.90
51733;DHT22;39139;53.144;6.244;2023-07-20T01:54:40;13.10;99.90
51733;DHT22;39139;53.144;6.244;2023-07-20T01:57:06;13.00;99.90
51733;DHT22;39139;53.144;6.244;2023-07-20T01:59:32;13.00;99.90
51733;DHT22;39139;53.144;6.244;2023-07-20T02:01:57;13.00;99.90
51733;DHT22;39139;53.144;6.244;2023-07-20T02:04:23;12.90;99.90
51733;DHT22;39139;53.144;6.244;2023-07-20T02:06:48;12.80;99.90
51733;DHT22;39139;53.144;6.244;2023-07-20T02:09:14;12.80;99.90
51733;DHT22;39139;53.144;6.244;2023-07-20T02:11:40;12.80;99.90
51733;DHT22;39139;53.144;6.244;2023-07-20T02:14:05;12.80;99.90
51733;DHT22;39139;53.144;6.244;2023-07-20T02:16:31;12.70;99.90
51733;DHT22;39139;53.144;6.244;2023-07-20T02:18:57;12.70;99.90
51733;DHT22;39139;53.144;6.244;2023-07-20T02:21:23;12.60;99.90
51733;DHT22;39139;53.144;6.244;2023-07-20T02:23:49;12.60;99.90
51733;DHT22;39139;53.144;6.244;2023-07-20T02:26:15;12.60;99.90
51733;DHT22;39139;53.144;6.244;2023-07-20T02:28:40;12.60;99.90
51733;DHT22;39139;53.144;6.244;2023-07-20T02:31:07;12.50;99.90
51733;DHT22;39139;53.144;6.244;2023-07-20T02:33:32;12.50;99.90
51733;DHT22;39139;53.144;6.244;2023-07-20T02:35:58;12.50;99.90
51733;DHT22;39139;53.144;6.244;2023-07-20T02:38:23;12.40;99.90
51733;DHT22;39139;53.144;6.244;2023-07-20T02:40:49;12.40;99.90
51733;DHT22;39139;53.144;6.244;2023-07-20T02:43:16;12.40;99.90
51733;DHT22;39139;53.144;6.244;2023-07-20T02:45:41;12.40;99.90
51733;DHT22;39139;53.144;6.244;2023-07-20T02:48:08;12.30;99.90
51733;DHT22;39139;53.144;6.244;2023-07-20T02:50:34;12.30;99.90
51733;DHT22;39139;53.144;6.244;2023-07-20T02:53:00;12.30;99.90
51733;DHT22;39139;53.144;6.244;2023-07-20T02:55:26;12.20;99.90
51733;DHT22;39139;53.144;6.244;2023-07-20T02:57:52;12.20;99.90
51733;DHT22;39139;53.144;6.244;2023-07-20T03:00:18;12.20;99.90
51733;DHT22;39139;53.144;6.244;2023-07-20T03:02:45;12.20;99.90
51733;DHT22;39139;53.144;6.244;2023-07-20T03:05:13;12.20;99.90
51733;DHT22;39139;53.144;6.244;2023-07-20T03:07:39;12.10;99.90
51733;DHT22;39139;53.144;6.244;2023-07-20T03:10:06;12.10;99.90
51733;DHT22;39139;53.144;6.244;2023-07-20T03:12:35;12.00;99.90
51733;DHT22;39139;53.144;6.244;2023-07-20T03:15:02;12.00;99.90
51733;DHT22;39139;53.144;6.244;2023-07-20T03:17:27;12.00;99.90
51733;DHT22;39139;53.144;6.244;2023-07-20T03:19:53;12.00;99.90
51733;DHT22;39139;53.144;6.244;2023-07-20T03:22:19;11.90;99.90
51733;DHT22;39139;53.144;6.244;2023-07-20T03:24:47;11.90;99.90
51733;DHT22;39139;53.144;6.244;2023-07-20T03:27:12;11.80;99.90
51733;DHT22;39139;53.144;6.244;2023-07-20T03:29:38;11.80;99.90
51733;DHT22;39139;53.144;6.244;2023-07-20T03:32:04;11.80;99.90
51733;DHT22;39139;53.144;6.244;2023-07-20T03:34:30;11.80;99.90
51733;DHT22;39139;53.144;6.244;2023-07-20T03:36:56;11.70;99.90
51733;DHT22;39139;53.144;6.244;2023-07-20T03:39:22;11.70;99.90
51733;DHT22;39139;53.144;6.244;2023-07-20T03:41:48;11.70;99.90
51733;DHT22;39139;53.144;6.244;2023-07-20T03:44:14;11.70;99.90
51733;DHT22;39139;53.144;6.244;2023-07-20T03:46:40;11.60;99.90
51733;DHT22;39139;53.144;6.244;2023-07-20T03:49:06;11.60;99.90
51733;DHT22;39139;53.144;6.244;2023-07-20T03:51:32;11.60;99.90
51733;DHT22;39139;53.144;6.244;2023-07-20T03:53:58;11.50;99.90
51733;DHT22;39139;53.144;6.244;2023-07-20T03:56:23;11.50;99.90
51733;DHT22;39139;53.144;6.244;2023-07-20T03:58:49;11.50;99.90
51733;DHT22;39139;53.144;6.244;2023-07-20T04:01:15;11.90;99.90
51733;DHT22;39139;53.144;6.244;2023-07-20T04:03:42;11.50;99.90
51733;DHT22;39139;53.144;6.244;2023-07-20T04:06:08;12.50;99.90
51733;DHT22;39139;53.144;6.244;2023-07-20T04:08:35;11.50;99.90
51733;DHT22;39139;53.144;6.244;2023-07-20T04:11:04;11.40;99.90
51733;DHT22;39139;53.144;6.244;2023-07-20T04:13:30;11.40;99.90
51733;DHT22;39139;53.144;6.244;2023-07-20T04:15:58;11.40;99.90
51733;DHT22;39139;53.144;6.244;2023-07-20T04:18:24;11.50;99.90
51733;DHT22;39139;53.144;6.244;2023-07-20T04:20:50;11.50;99.90
51733;DHT22;39139;53.144;6.244;2023-07-20T04:23:15;11.50;99.90
51733;DHT22;39139;53.144;6.244;2023-07-20T04:25:42;11.50;99.90
51733;DHT22;39139;53.144;6.244;2023-07-20T04:28:08;11.50;99.90
51733;DHT22;39139;53.144;6.244;2023-07-20T04:30:37;11.50;99.90
51733;DHT22;39139;53.144;6.244;2023-07-20T04:33:03;11.50;99.90
51733;DHT22;39139;53.144;6.244;2023-07-20T04:35:52;11.50;99.90
51733;DHT22;39139;53.144;6.244;2023-07-20T04:38:18;11.60;99.90
51733;DHT22;39139;53.144;6.244;2023-07-20T04:40:48;11.50;99.90
51733;DHT22;39139;53.144;6.244;2023-07-20T04:43:15;11.60;99.90
51733;DHT22;39139;53.144;6.244;2023-07-20T04:45:40;11.60;99.90
51733;DHT22;39139;53.144;6.244;2023-07-20T04:48:12;11.60;99.90
51733;DHT22;39139;53.144;6.244;2023-07-20T04:50:40;11.70;99.90
51733;DHT22;39139;53.144;6.244;2023-07-20T04:53:06;11.70;99.90
51733;DHT22;39139;53.144;6.244;2023-07-20T04:55:32;11.80;99.90
51733;DHT22;39139;53.144;6.244;2023-07-20T04:58:00;11.80;99.90
51733;DHT22;39139;53.144;6.244;2023-07-20T05:00:26;11.90;99.90
51733;DHT22;39139;53.144;6.244;2023-07-20T05:02:52;12.00;99.90
51733;DHT22;39139;53.144;6.244;2023-07-20T05:05:17;12.00;99.90
51733;DHT22;39139;53.144;6.244;2023-07-20T05:07:43;12.10;99.90
51733;DHT22;39139;53.144;6.244;2023-07-20T05:10:09;12.10;99.90
51733;DHT22;39139;53.144;6.244;2023-07-20T05:12:35;12.20;99.90
51733;DHT22;39139;53.144;6.244;2023-07-20T05:15:01;12.30;99.90
51733;DHT22;39139;53.144;6.244;2023-07-20T05:17:26;12.30;99.90
51733;DHT22;39139;53.144;6.244;2023-07-20T05:19:52;12.40;99.90
51733;DHT22;39139;53.144;6.244;2023-07-20T05:22:18;12.50;99.90
51733;DHT22;39139;53.144;6.244;2023-07-20T05:24:43;12.60;99.90
51733;DHT22;39139;53.144;6.244;2023-07-20T05:27:09;12.70;99.90
51733;DHT22;39139;53.144;6.244;2023-07-20T05:29:35;12.70;99.90
51733;DHT22;39139;53.144;6.244;2023-07-20T05:32:00;12.90;99.90
51733;DHT22;39139;53.144;6.244;2023-07-20T05:34:26;13.00;99.90
51733;DHT22;39139;53.144;6.244;2023-07-20T05:36:51;13.00;99.90
51733;DHT22;39139;53.144;6.244;2023-07-20T05:39:17;13.10;99.90
51733;DHT22;39139;53.144;6.244;2023-07-20T05:41:43;13.20;99.90
51733;DHT22;39139;53.144;6.244;2023-07-20T05:44:09;13.30;99.90
51733;DHT22;39139;53.144;6.244;2023-07-20T05:46:35;13.40;99.90
51733;DHT22;39139;53.144;6.244;2023-07-20T05:49:01;13.50;99.90
51733;DHT22;39139;53.144;6.244;2023-07-20T05:51:27;13.50;99.90
51733;DHT22;39139;53.144;6.244;2023-07-20T05:53:53;13.60;99.90
51733;DHT22;39139;53.144;6.244;2023-07-20T05:56:18;13.70;99.90
51733;DHT22;39139;53.144;6.244;2023-07-20T05:58:44;13.80;99.90
51733;DHT22;39139;53.144;6.244;2023-07-20T06:01:10;13.80;99.90
51733;DHT22;39139;53.144;6.244;2023-07-20T06:03:35;13.90;99.90
51733;DHT22;39139;53.144;6.244;2023-07-20T06:06:03;14.00;99.90
51733;DHT22;39139;53.144;6.244;2023-07-20T06:08:30;14.10;99.90
51733;DHT22;39139;53.144;6.244;2023-07-20T06:10:56;14.10;99.90
51733;DHT22;39139;53.144;6.244;2023-07-20T06:13:22;14.20;99.90
51733;DHT22;39139;53.144;6.244;2023-07-20T06:15:48;14.30;99.90
51733;DHT22;39139;53.144;6.244;2023-07-20T06:18:14;14.40;99.90
51733;DHT22;39139;53.144;6.244;2023-07-20T06:20:39;14.50;99.90
51733;DHT22;39139;53.144;6.244;2023-07-20T06:23:05;14.50;99.90
51733;DHT22;39139;53.144;6.244;2023-07-20T06:25:31;14.60;99.90
51733;DHT22;39139;53.144;6.244;2023-07-20T06:27:56;14.70;99.90
51733;DHT22;39139;53.144;6.244;2023-07-20T06:30:22;14.70;99.90
51733;DHT22;39139;53.144;6.244;2023-07-20T06:32:48;14.90;99.90
51733;DHT22;39139;53.144;6.244;2023-07-20T06:35:14;15.00;99.90
51733;DHT22;39139;53.144;6.244;2023-07-20T06:37:41;15.10;99.90
51733;DHT22;39139;53.144;6.244;2023-07-20T06:40:07;15.30;99.90
51733;DHT22;39139;53.144;6.244;2023-07-20T06:42:34;15.40;99.90
51733;DHT22;39139;53.144;6.244;2023-07-20T06:45:00;15.60;99.90
51733;DHT22;39139;53.144;6.244;2023-07-20T06:47:26;15.80;99.90
51733;DHT22;39139;53.144;6.244;2023-07-20T06:49:52;15.90;99.90
51733;DHT22;39139;53.144;6.244;2023-07-20T06:52:18;16.00;99.90
51733;DHT22;39139;53.144;6.244;2023-07-20T06:54:43;16.10;99.90
51733;DHT22;39139;53.144;6.244;2023-07-20T06:57:10;16.30;99.90
51733;DHT22;39139;53.144;6.244;2023-07-20T06:59:35;16.40;99.90
51733;DHT22;39139;53.144;6.244;2023-07-20T07:02:01;16.50;99.90
51733;DHT22;39139;53.144;6.244;2023-07-20T07:04:27;16.60;99.90
51733;DHT22;39139;53.144;6.244;2023-07-20T07:06:53;16.80;99.90
51733;DHT22;39139;53.144;6.244;2023-07-20T07:09:18;16.90;99.90
51733;DHT22;39139;53.144;6.244;2023-07-20T07:11:44;17.00;99.90
51733;DHT22;39139;53.144;6.244;2023-07-20T07:14:11;17.10;99.90
51733;DHT22;39139;53.144;6.244;2023-07-20T07:16:37;17.10;99.90
51733;DHT22;39139;53.144;6.244;2023-07-20T07:19:02;17.30;99.90
51733;DHT22;39139;53.144;6.244;2023-07-20T07:21:29;17.40;99.90
51733;DHT22;39139;53.144;6.244;2023-07-20T07:23:55;17.30;99.90
51733;DHT22;39139;53.144;6.244;2023-07-20T07:26:23;17.30;99.90
51733;DHT22;39139;53.144;6.244;2023-07-20T07:28:49;17.40;99.90
51733;DHT22;39139;53.144;6.244;2023-07-20T07:31:15;17.40;99.90
51733;DHT22;39139;53.144;6.244;2023-07-20T07:33:43;17.30;99.90
51733;DHT22;39139;53.144;6.244;2023-07-20T07:36:09;17.30;99.90
51733;DHT22;39139;53.144;6.244;2023-07-20T07:38:35;17.20;99.90
51733;DHT22;39139;53.144;6.244;2023-07-20T07:41:00;17.00;99.90
51733;DHT22;39139;53.144;6.244;2023-07-20T07:43:26;17.00;99.90
51733;DHT22;39139;53.144;6.244;2023-07-20T07:45:54;17.20;99.90
51733;DHT22;39139;53.144;6.244;2023-07-20T07:48:20;17.30;99.90
51733;DHT22;39139;53.144;6.244;2023-07-20T07:50:46;17.40;99.90
51733;DHT22;39139;53.144;6.244;2023-07-20T07:53:12;17.40;99.90
51733;DHT22;39139;53.144;6.244;2023-07-20T07:55:41;17.60;99.90
51733;DHT22;39139;53.144;6.244;2023-07-20T07:58:06;17.70;99.90
51733;DHT22;39139;53.144;6.244;2023-07-20T08:00:32;17.80;99.90
51733;DHT22;39139;53.144;6.244;2023-07-20T08:02:58;17.80;99.90
51733;DHT22;39139;53.144;6.244;2023-07-20T08:05:24;17.70;99.90
51733;DHT22;39139;53.144;6.244;2023-07-20T08:07:49;17.60;99.90
51733;DHT22;39139;53.144;6.244;2023-07-20T08:10:15;17.60;99.90
51733;DHT22;39139;53.144;6.244;2023-07-20T08:12:41;17.70;99.90
51733;DHT22;39139;53.144;6.244;2023-07-20T08:15:07;17.60;99.90
51733;DHT22;39139;53.144;6.244;2023-07-20T08:17:32;17.40;99.90
51733;DHT22;39139;53.144;6.244;2023-07-20T08:19:58;17.30;99.90
51733;DHT22;39139;53.144;6.244;2023-07-20T08:22:24;17.40;99.90
51733;DHT22;39139;53.144;6.244;2023-07-20T08:24:49;17.60;99.90
51733;DHT22;39139;53.144;6.244;2023-07-20T08:27:15;17.80;99.90
51733;DHT22;39139;53.144;6.244;2023-07-20T08:29:41;18.00;99.90
51733;DHT22;39139;53.144;6.244;2023-07-20T08:32:06;18.30;99.90
51733;DHT22;39139;53.144;6.244;2023-07-20T08:34:32;18.60;99.90
51733;DHT22;39139;53.144;6.244;2023-07-20T08:36:58;18.80;99.90
51733;DHT22;39139;53.144;6.244;2023-07-20T08:39:24;19.20;99.90
51733;DHT22;39139;53.144;6.244;2023-07-20T08:41:50;19.30;99.90
51733;DHT22;39139;53.144;6.244;2023-07-20T08:44:17;19.30;99.90
51733;DHT22;39139;53.144;6.244;2023-07-20T08:46:43;19.20;99.90
51733;DHT22;39139;53.144;6.244;2023-07-20T08:49:09;19.00;99.90
51733;DHT22;39139;53.144;6.244;2023-07-20T08:51:36;18.70;99.90
51733;DHT22;39139;53.144;6.244;2023-07-20T08:54:02;18.50;99.90
51733;DHT22;39139;53.144;6.244;2023-07-20T08:56:29;18.50;99.90
51733;DHT22;39139;53.144;6.244;2023-07-20T08:58:57;18.90;99.90
51733;DHT22;39139;53.144;6.244;2023-07-20T09:01:25;19.30;99.90
51733;DHT22;39139;53.144;6.244;2023-07-20T09:03:52;19.60;99.90
51733;DHT22;39139;53.144;6.244;2023-07-20T09:06:17;19.70;99.90
51733;DHT22;39139;53.144;6.244;2023-07-20T09:08:43;19.90;99.90
51733;DHT22;39139;53.144;6.244;2023-07-20T09:11:12;19.90;99.90
51733;DHT22;39139;53.144;6.244;2023-07-20T09:13:38;20.10;99.90
51733;DHT22;39139;53.144;6.244;2023-07-20T09:16:04;20.40;99.90
51733;DHT22;39139;53.144;6.244;2023-07-20T09:18:31;20.60;99.90
51733;DHT22;39139;53.144;6.244;2023-07-20T09:20:58;21.00;99.90
51733;DHT22;39139;53.144;6.244;2023-07-20T09:23:37;21.30;99.90
51733;DHT22;39139;53.144;6.244;2023-07-20T09:26:13;21.40;99.90
51733;DHT22;39139;53.144;6.244;2023-07-20T09:28:43;21.70;99.90
51733;DHT22;39139;53.144;6.244;2023-07-20T09:31:19;22.10;99.90
51733;DHT22;39139;53.144;6.244;2023-07-20T09:33:45;21.60;99.90
51733;DHT22;39139;53.144;6.244;2023-07-20T09:36:11;21.50;99.90
51733;DHT22;39139;53.144;6.244;2023-07-20T09:38:38;21.80;99.90
51733;DHT22;39139;53.144;6.244;2023-07-20T09:41:07;22.10;99.90
51733;DHT22;39139;53.144;6.244;2023-07-20T09:43:34;22.30;99.90
51733;DHT22;39139;53.144;6.244;2023-07-20T09:46:00;22.30;99.90
51733;DHT22;39139;53.144;6.244;2023-07-20T09:48:26;22.30;99.90
51733;DHT22;39139;53.144;6.244;2023-07-20T09:50:53;22.40;99.90
51733;DHT22;39139;53.144;6.244;2023-07-20T09:53:19;22.50;99.90
51733;DHT22;39139;53.144;6.244;2023-07-20T09:55:48;22.60;99.90
51733;DHT22;39139;53.144;6.244;2023-07-20T09:58:15;22.40;99.90
51733;DHT22;39139;53.144;6.244;2023-07-20T10:00:41;22.20;99.90
51733;DHT22;39139;53.144;6.244;2023-07-20T10:03:16;21.90;99.90
51733;DHT22;39139;53.144;6.244;2023-07-20T10:06:09;21.60;99.90
51733;DHT22;39139;53.144;6.244;2023-07-20T10:08:39;21.40;99.90
51733;DHT22;39139;53.144;6.244;2023-07-20T10:11:07;21.30;99.90
51733;DHT22;39139;53.144;6.244;2023-07-20T10:13:38;21.40;99.90
51733;DHT22;39139;53.144;6.244;2023-07-20T10:16:10;21.50;99.90
51733;DHT22;39139;53.144;6.244;2023-07-20T10:18:59;21.70;99.90
51733;DHT22;39139;53.144;6.244;2023-07-20T10:21:27;21.80;99.90
51733;DHT22;39139;53.144;6.244;2023-07-20T10:23:56;21.70;99.90
51733;DHT22;39139;53.144;6.244;2023-07-20T10:26:22;21.40;99.90
51733;DHT22;39139;53.144;6.244;2023-07-20T10:28:47;21.20;99.90
51733;DHT22;39139;53.144;6.244;2023-07-20T10:31:13;21.00;99.90
51733;DHT22;39139;53.144;6.244;2023-07-20T10:33:43;20.70;99.90
51733;DHT22;39139;53.144;6.244;2023-07-20T10:36:11;20.50;99.90
51733;DHT22;39139;53.144;6.244;2023-07-20T10:41:48;20.60;99.90
51733;DHT22;39139;53.144;6.244;2023-07-20T10:44:19;20.90;99.90
51733;DHT22;39139;53.144;6.244;2023-07-20T10:46:46;21.10;99.90
51733;DHT22;39139;53.144;6.244;2023-07-20T10:49:14;21.30;99.90
51733;DHT22;39139;53.144;6.244;2023-07-20T10:51:42;21.50;99.90
51733;DHT22;39139;53.144;6.244;2023-07-20T10:56:56;21.80;99.90
51733;DHT22;39139;53.144;6.244;2023-07-20T11:01:59;21.40;99.90
51733;DHT22;39139;53.144;6.244;2023-07-20T11:04:42;21.50;99.90
51733;DHT22;39139;53.144;6.244;2023-07-20T11:07:08;22.00;99.90
51733;DHT22;39139;53.144;6.244;2023-07-20T11:09:38;22.00;99.90
51733;DHT22;39139;53.144;6.244;2023-07-20T11:12:17;21.80;99.90
51733;DHT22;39139;53.144;6.244;2023-07-20T11:14:53;21.50;99.90
51733;DHT22;39139;53.144;6.244;2023-07-20T11:17:19;21.20;99.90
51733;DHT22;39139;53.144;6.244;2023-07-20T11:19:56;21.20;99.90
51733;DHT22;39139;53.144;6.244;2023-07-20T11:22:22;21.00;99.90
51733;DHT22;39139;53.144;6.244;2023-07-20T11:24:48;20.80;99.90
51733;DHT22;39139;53.144;6.244;2023-07-20T11:27:15;20.50;99.90
51733;DHT22;39139;53.144;6.244;2023-07-20T11:29:41;20.40;99.90
51733;DHT22;39139;53.144;6.244;2023-07-20T11:32:07;20.30;99.90
51733;DHT22;39139;53.144;6.244;2023-07-20T11:34:34;20.40;99.90
51733;DHT22;39139;53.144;6.244;2023-07-20T11:37:00;20.40;99.90
51733;DHT22;39139;53.144;6.244;2023-07-20T11:39:26;20.30;99.90
51733;DHT22;39139;53.144;6.244;2023-07-20T11:41:54;20.20;99.90
51733;DHT22;39139;53.144;6.244;2023-07-20T11:44:23;20.10;99.90
51733;DHT22;39139;53.144;6.244;2023-07-20T11:49:30;20.20;99.90
51733;DHT22;39139;53.144;6.244;2023-07-20T11:51:59;20.30;99.90
51733;DHT22;39139;53.144;6.244;2023-07-20T11:54:26;20.40;99.90
51733;DHT22;39139;53.144;6.244;2023-07-20T11:56:55;20.50;99.90
51733;DHT22;39139;53.144;6.244;2023-07-20T11:59:21;20.60;99.90
51733;DHT22;39139;53.144;6.244;2023-07-20T12:01:47;20.50;99.90
51733;DHT22;39139;53.144;6.244;2023-07-20T12:04:13;20.30;99.90
51733;DHT22;39139;53.144;6.244;2023-07-20T12:06:39;20.10;99.90
51733;DHT22;39139;53.144;6.244;2023-07-20T12:09:04;19.90;99.90
51733;DHT22;39139;53.144;6.244;2023-07-20T12:11:39;19.60;99.90
51733;DHT22;39139;53.144;6.244;2023-07-20T12:14:08;19.40;99.90
51733;DHT22;39139;53.144;6.244;2023-07-20T12:16:36;19.30;99.90
51733;DHT22;39139;53.144;6.244;2023-07-20T12:21:30;18.90;99.90
51733;DHT22;39139;53.144;6.244;2023-07-20T12:23:58;18.90;99.90
51733;DHT22;39139;53.144;6.244;2023-07-20T12:26:28;18.90;99.90
51733;DHT22;39139;53.144;6.244;2023-07-20T12:28:54;19.10;99.90
51733;DHT22;39139;53.144;6.244;2023-07-20T12:31:20;19.10;99.90
51733;DHT22;39139;53.144;6.244;2023-07-20T12:33:48;19.20;99.90
51733;DHT22;39139;53.144;6.244;2023-07-20T12:36:14;19.20;99.90
51733;DHT22;39139;53.144;6.244;2023-07-20T12:38:40;19.20;99.90
51733;DHT22;39139;53.144;6.244;2023-07-20T12:41:09;19.10;99.90
51733;DHT22;39139;53.144;6.244;2023-07-20T12:43:35;19.10;99.90
51733;DHT22;39139;53.144;6.244;2023-07-20T12:46:01;19.20;99.90
51733;DHT22;39139;53.144;6.244;2023-07-20T12:48:27;19.20;99.90
51733;DHT22;39139;53.144;6.244;2023-07-20T12:50:53;19.40;99.90
51733;DHT22;39139;53.144;6.244;2023-07-20T12:53:18;19.60;99.90
51733;DHT22;39139;53.144;6.244;2023-07-20T12:55:44;19.90;99.90
51733;DHT22;39139;53.144;6.244;2023-07-20T12:58:11;20.10;99.90
51733;DHT22;39139;53.144;6.244;2023-07-20T13:00:37;20.10;99.90
51733;DHT22;39139;53.144;6.244;2023-07-20T13:03:02;20.00;99.90
51733;DHT22;39139;53.144;6.244;2023-07-20T13:05:31;20.00;99.90
51733;DHT22;39139;53.144;6.244;2023-07-20T13:07:57;20.10;99.90
51733;DHT22;39139;53.144;6.244;2023-07-20T13:10:24;20.20;99.90
51733;DHT22;39139;53.144;6.244;2023-07-20T13:12:50;20.30;99.90
51733;DHT22;39139;53.144;6.244;2023-07-20T13:15:17;20.50;99.90
51733;DHT22;39139;53.144;6.244;2023-07-20T13:17:42;20.50;99.90
51733;DHT22;39139;53.144;6.244;2023-07-20T13:20:09;20.40;99.90
51733;DHT22;39139;53.144;6.244;2023-07-20T13:22:39;20.40;99.90
51733;DHT22;39139;53.144;6.244;2023-07-20T13:25:05;20.30;99.90
51733;DHT22;39139;53.144;6.244;2023-07-20T13:27:32;20.20;99.90
51733;DHT22;39139;53.144;6.244;2023-07-20T13:29:58;19.90;99.90
51733;DHT22;39139;53.144;6.244;2023-07-20T13:32:31;20.50;99.90
51733;DHT22;39139;53.144;6.244;2023-07-20T13:34:57;20.60;99.90
51733;DHT22;39139;53.144;6.244;2023-07-20T13:37:22;20.80;99.90
51733;DHT22;39139;53.144;6.244;2023-07-20T13:39:48;20.80;99.90
51733;DHT22;39139;53.144;6.244;2023-07-20T13:42:13;20.80;99.90
51733;DHT22;39139;53.144;6.244;2023-07-20T13:44:40;20.70;99.90
51733;DHT22;39139;53.144;6.244;2023-07-20T13:47:06;20.90;99.90
51733;DHT22;39139;53.144;6.244;2023-07-20T13:49:32;21.10;99.90
51733;DHT22;39139;53.144;6.244;2023-07-20T13:51:58;21.10;99.90
51733;DHT22;39139;53.144;6.244;2023-07-20T13:54:24;21.20;99.90
51733;DHT22;39139;53.144;6.244;2023-07-20T13:56:50;21.40;99.90
51733;DHT22;39139;53.144;6.244;2023-07-20T13:59:17;21.50;99.90
51733;DHT22;39139;53.144;6.244;2023-07-20T14:01:45;21.60;99.90
51733;DHT22;39139;53.144;6.244;2023-07-20T14:04:11;21.70;99.90
51733;DHT22;39139;53.144;6.244;2023-07-20T14:06:37;21.80;99.90
51733;DHT22;39139;53.144;6.244;2023-07-20T14:09:03;21.90;99.90
51733;DHT22;39139;53.144;6.244;2023-07-20T14:11:29;21.80;99.90
51733;DHT22;39139;53.144;6.244;2023-07-20T14:13:55;21.60;99.90
51733;DHT22;39139;53.144;6.244;2023-07-20T14:16:21;21.40;99.90
51733;DHT22;39139;53.144;6.244;2023-07-20T14:18:47;21.40;99.90
51733;DHT22;39139;53.144;6.244;2023-07-20T14:21:18;21.30;99.90
51733;DHT22;39139;53.144;6.244;2023-07-20T14:23:47;21.30;99.90
51733;DHT22;39139;53.144;6.244;2023-07-20T14:26:13;21.50;99.90
51733;DHT22;39139;53.144;6.244;2023-07-20T14:28:39;21.50;99.90
51733;DHT22;39139;53.144;6.244;2023-07-20T14:31:05;21.50;99.90
51733;DHT22;39139;53.144;6.244;2023-07-20T14:33:31;21.40;99.90
51733;DHT22;39139;53.144;6.244;2023-07-20T14:35:57;21.40;99.90
51733;DHT22;39139;53.144;6.244;2023-07-20T14:38:23;21.40;99.90
51733;DHT22;39139;53.144;6.244;2023-07-20T14:40:48;21.30;99.90
51733;DHT22;39139;53.144;6.244;2023-07-20T14:43:14;21.20;99.90
51733;DHT22;39139;53.144;6.244;2023-07-20T14:45:41;21.10;99.90
51733;DHT22;39139;53.144;6.244;2023-07-20T14:48:07;21.20;99.90
51733;DHT22;39139;53.144;6.244;2023-07-20T14:50:33;21.20;99.90
51733;DHT22;39139;53.144;6.244;2023-07-20T14:52:59;21.20;99.90
51733;DHT22;39139;53.144;6.244;2023-07-20T14:55:25;21.10;99.90
51733;DHT22;39139;53.144;6.244;2023-07-20T14:57:51;21.00;99.90
51733;DHT22;39139;53.144;6.244;2023-07-20T15:00:17;20.90;99.90
51733;DHT22;39139;53.144;6.244;2023-07-20T15:02:43;20.90;99.90
51733;DHT22;39139;53.144;6.244;2023-07-20T15:05:10;20.80;99.90
51733;DHT22;39139;53.144;6.244;2023-07-20T15:07:36;20.80;99.90
51733;DHT22;39139;53.144;6.244;2023-07-20T15:10:05;20.80;99.90
51733;DHT22;39139;53.144;6.244;2023-07-20T15:12:31;20.70;99.90
51733;DHT22;39139;53.144;6.244;2023-07-20T15:15:07;20.60;99.90
51733;DHT22;39139;53.144;6.244;2023-07-20T15:17:33;20.80;99.90
51733;DHT22;39139;53.144;6.244;2023-07-20T15:20:00;20.90;99.90
51733;DHT22;39139;53.144;6.244;2023-07-20T15:22:26;20.90;99.90
51733;DHT22;39139;53.144;6.244;2023-07-20T15:24:51;20.90;99.90
51733;DHT22;39139;53.144;6.244;2023-07-20T15:27:17;21.00;99.90
51733;DHT22;39139;53.144;6.244;2023-07-20T15:29:43;21.00;99.90
51733;DHT22;39139;53.144;6.244;2023-07-20T15:32:09;21.00;99.90
51733;DHT22;39139;53.144;6.244;2023-07-20T15:34:35;20.90;99.90
51733;DHT22;39139;53.144;6.244;2023-07-20T15:37:01;20.80;99.90
51733;DHT22;39139;53.144;6.244;2023-07-20T15:39:28;20.80;99.90
51733;DHT22;39139;53.144;6.244;2023-07-20T15:41:54;21.40;99.90
51733;DHT22;39139;53.144;6.244;2023-07-20T15:44:20;20.80;99.90
51733;DHT22;39139;53.144;6.244;2023-07-20T15:46:47;20.80;99.90
51733;DHT22;39139;53.144;6.244;2023-07-20T15:49:14;20.60;99.90